Latest Observation

42 Stations

15 Minute Data | America/Los_Angeles
as of 5/9/26 5:11 PM PDT
Station Date Time Temp (°F) RH (%) Dew Pt (°F) Wind Spd (mph) Wind Dir (°) Wind Gust (mph) Latest Rain (In) Daily Rain (In) Daily Min Temp (°F) Daily Max Temp (°F) Daily Max Wind (mph)
Elk Mt. Farm 5/9/26 1700 83.7   5.1 - - - - - - - 44.9   2.7 85.5   3.0 -
Upper Lake 5/9/26 1700 83.9   4.7 36   4 54.4   1.6 4.0 NW | 304 10.6   3.2 0.00 0.00 44.8   2.6 87.2   4.8 14.0   0.3
Scotts Valley 5/9/26 1700 84.4   5.6 36   1 54.9   5.8 4.2 W | 263 11.5   0.4 0.00 0.00 40.8   4.2 87.8   4.3 11.6   1.1
Scotts Valley-South (Bella Vista) 5/9/26 1700 84.5   5.9 28   0 47.7   4.7 7.0 WNW | 282 12.1   2.2 0.00 0.00 45.4   3.7 87.1   4.4 13.5   0.8
Kelseyville 5/9/26 1700 85.8   4.4 34   1 54.6   5.0 7.3 SW | 230 13.8   1.5 0.00 0.00 45.0   3.4 88.2   4.2 15.3   2.6
Kelseyville Remote 5/9/26 1700 86.2   4.9 29   2 49.8   6.0 - - - 0.00 0.00 45.7   3.7 87.7   4.1 -
Kelseyville (Clark Drive) 5/9/26 1700 85.2   3.4 - - - - - 0.00 0.00 44.7   3.7 88.2   3.3 -
Kelsey Bench (Oaklea) 5/9/26 1700 83.6   3.7 30   1 49.1   2.5 8.0 WSW | 240 12.8   2.5 0.00 0.00 48.1   3.2 85.1   2.8 14.8   0.1
Smith Lane (Kelseyville-South) 5/9/26 1700 84.3   3.4 32   1 51.4   3.9 7.5 WSW | 244 13.3   0.6 0.00 0.00 45.2   4.6 86.7   3.5 14.4   0.6
Bell Hill-West 5/9/26 1700 83.5   4.8 38   0 55.3   4.0 6.9 WSW | 257 11.8   1.0 0.00 0.00 46.2   4.6 86.2   4.6 14.2   1.7
High Valley Ridgeline (Brassfield) 5/9/26 1700 80.9   4.2 33   4 49.3   0.8 9.8 WSW | 240 15.5   0.2 0.00 0.00 60.6   4.3 82.5   3.2 20.0   3.7
Wight Way (Adobe Creek) 5/9/26 1700 84.1   5.2 31   7 50.1   1.1 5.9 WNW | 298 10.7   1.6 0.00 0.00 44.3   4.8 86.7   3.5 15.1   1.2
Ridgeline Top (Brassfield) 5/9/26 1700 82.1   4.8 - - - - - - - 60.5   4.7 84.6   4.4 -
Ridgeline Low (Brassfield) 5/9/26 1700 81.7   4.2 - - - - - - - 55.1   2.3 83.3   3.5 -
Long Valley (Shannon) 5/9/26 1600 85.6   1.4 37   1 56.2   2.2 5.3 NW | 323 15.4   3.2 0.00 0.00 46.6   3.8 87.2   2.8 15.4   3.2
High Valley Winery 5/9/26 1700 83.3   4.0 32   5 50.5   0.2 6.5 WSW | 254 14.0   3.5 0.00 0.00 44.5   2.9 83.8   2.8 17.1   2.2
Round Mtn Rd. 5/9/26 1315 81.9   5.9 - - - - - - - 49.7   3.2 82.2   5.6 -
Circle O 5/9/26 1700 83.5   3.6 - - - - - - - 49.0   4.6 85.4   3.4 -
Robertsbridge Vineyards 5/9/26 1700 86.0   4.3 30   1 51.1   4.2 - - - - - 45.8   5.6 87.8   3.0 -
Urgency Vineyard 5/9/26 1700 84.4   3.4 31   2 50.7   4.8 4.2 W | 266 9.5   0.1 0.00 0.00 44.8   3.1 86.8   3.7 13.2   0.2
Red Hills (Beckstoffer) 5/9/26 1700 83.7   3.9 32   2 50.7   4.9 - - - 0.00 0.00 41.9   5.6 86.0   2.5 -
Winters (Shannon) 5/9/26 1700 81.3   3.1 32   3 49.0   5.0 6.8 WNW | 293 12.9   1.8 0.00 0.00 42.1   7.1 83.6   3.4 14.1   0.9
Secret Pond (Shannon) 5/9/26 1700 80.2   2.9 33   0 48.4   2.6 8.0 NW | 310 13.3   2.1 0.00 0.00 47.0   4.8 84.0   3.1 14.5   1.6
Rolling Knolls (Shannon) 5/9/26 1700 85.3   5.1 29   5 49.8   0.3 3.0 WNW | 297 10.8   1.5 0.00 0.00 46.0   5.1 86.8   3.8 11.2   1.9
Lower Lake 5/9/26 1700 84.5   5.0 32   2 51.4   2.4 7.0 NW | 311 14.1   2.5 0.00 0.00 50.8   4.5 86.5   4.1 14.1   1.8
Adamson Ranch 5/9/26 1700 88.5   6.0 30   3 53.6   2.7 2.1 NNW | 346 8.1   1.3 0.00 0.00 46.5   5.8 88.5   1.8 9.6   2.2
Middletown (Diamond D) 5/9/26 1700 83.9   4.7 45   8 60.5   0.1 6.6 NNW | 345 12.7   2.0 0.00 0.00 49.2   5.2 85.9   1.5 17.7   3.0
Middletown-West (Domaine Helena) 5/9/26 1700 82.8   4.1 46   9 59.8   1.1 10.7 SSW | 199 16.5   1.1 0.00 0.00 45.0   5.6 84.1   2.0 18.5   0.0
Middletown-South 5/9/26 1700 82.6   4.0 41   8 56.9   1.3 6.3 SW | 234 15.1   0.6 0.00 0.00 49.1   4.5 83.4   0.3 19.6   2.2
Jim Davis (Langtry) 5/9/26 1700 85.1   3.8 44   2 61.0   1.9 8.1 SW | 229 15.0   5.8 0.00 0.00 53.2   3.7 87.0   4.6 15.8   3.2
Napa Valley Basin 5/9/26 1700 87.1   4.3 45   3 63.1   2.2 5.5 S | 190 8.8   2.3 0.00 0.00 47.1   1.0 88.0   4.0 15.6   0.7
Lower Bohn 5/9/26 1700 86.0   4.3 44   5 61.5   1.0 5.9 E | 92 10.0   1.1 0.00 0.00 44.5   1.6 89.0   5.7 11.7   0.1
Upper Bohn-North 5/9/26 1700 87.6   5.2 38   7 58.9   0.1 2.6 W | 276 8.8   2.3 0.00 0.00 53.0   4.4 89.5   5.4 10.8   0.2
Snell Peak Blk#9 5/9/26 1700 84.7   3.4 40   3 57.4   1.1 4.2 S | 184 9.7   1.5 0.00 0.00 55.7   4.8 86.5   2.8 11.5   0.8
Coyote Lake West 5/9/26 1700 86.3   4.5 45   3 62.7   2.5 4.9 SSW | 198 10.2   0.1 0.00 0.00 54.0   2.8 86.5   3.9 12.5   0.4
Coyote Lake Northeast 5/9/26 1700 86.1   3.9 46   4 62.8   1.2 - - - - - 53.2   2.7 87.3   3.9 -
Coyote Lake East 5/9/26 1700 86.6   3.8 42   4 61.0   1.1 - - - - - 49.2   2.1 87.7   4.3 -
Morgan Valley 5/9/26 1700 83.4   6.9 37   13 54.4   2.0 2.4 WSW | 258 8.9   0.7 0.00 0.00 60.7   4.2 84.6   6.5 12.2   0.6
Mine Pit North 5/9/26 1700 83.7   4.7 47   1 61.4   3.7 6.0 S | 187 11.9   1.1 - - 56.6   3.9 89.2   7.3 13.4   5.6
Mine Pit South 5/9/26 1700 85.5   3.7 37   1 55.9   2.2 4.2 SSW | 197 10.4   2.2 0.00 0.00 58.6   3.5 89.7   6.5 20.9   4.1
Cow Mountain 5/9/26 1700 70.5   6.3 - - 15.2 W | 271 21.3   2.0 0.00 0.00 64.1   10.2 73.0   5.3 24.6   0.2
Ukiah-SE (Ruddick) 5/9/26 1700 81.4   2.6 32   3 48.6   4.5 12.5 NNW | 346 20.6   4.6 0.00 0.00 45.8   3.6 85.3   4.7 20.6   3.5
Max     88.5 47 63.1 15.2 - 21.3 0.00 0.00 64.1 89.7 24.6
Avg     84.0 36 54.7 6.4 - 12.6 0.00 - - - -
Min     70.5 28 47.7 2.1 - 8.1 0.00 0.00 40.8 73.0 9.6